Time;durP1;ratioP1;P1;durP2;ratioP2;P2;SDS_P1;SDS_P2;PMS_P1;PMS_P2;Temp;Humidity;BMP_temperature;BMP_pressure;BME280_temperature;BME280_humidity;BME280_pressure;Samples;Min_cycle;Max_cycle;Signal;HPM_P1;HPM_P2
2022/02/22 00:02:14;;;;;;;6.63;3.92;;;;;;;;;;5055877;28;20029;-53
2022/02/22 00:04:43;;;;;;;4.68;3.50;;;;;;;;;;5055980;28;20135;-51
2022/02/22 00:07:10;;;;;;;4.13;2.92;;;7.20;99.90;;;;;;5055724;28;20037;-52
2022/02/22 00:09:36;;;;;;;7.07;4.07;;;7.00;99.90;;;;;;5055797;28;20025;-53
2022/02/22 00:12:03;;;;;;;5.55;3.13;;;7.00;99.90;;;;;;5055657;28;20021;-59
2022/02/22 00:14:28;;;;;;;5.13;3.40;;;6.90;99.90;;;;;;5055766;28;20175;-51
2022/02/22 00:16:58;;;;;;;4.18;2.85;;;6.70;99.90;;;;;;5055651;28;20456;-53
2022/02/22 00:19:24;;;;;;;4.90;2.70;;;;;;;;;;5055497;28;20042;-54
2022/02/22 00:21:51;;;;;;;6.22;3.95;;;;;;;;;;5055598;28;20099;-54
2022/02/22 00:24:18;;;;;;;5.82;3.33;;;;;;;;;;5055456;28;20036;-50
2022/02/22 00:26:44;;;;;;;6.50;4.35;;;;;;;;;;5055469;28;20064;-55
2022/02/22 00:29:10;;;;;;;6.45;3.80;;;;;;;;;;5055378;28;20400;-52
2022/02/22 00:31:37;;;;;;;7.05;4.50;;;;;;;;;;5004480;28;20037;-52
2022/02/22 00:34:04;;;;;;;7.22;4.97;;;;;;;;;;5055365;28;20017;-55
2022/02/22 00:36:30;;;;;;;5.50;4.03;;;;;;;;;;5055296;28;20037;-52
2022/02/22 00:38:57;;;;;;;6.45;4.20;;;;;;;;;;5055200;28;20029;-50
2022/02/22 00:41:23;;;;;;;5.10;3.40;;;;;;;;;;5055063;28;20017;-52
2022/02/22 00:43:49;;;;;;;4.20;2.95;;;;;;;;;;5055114;28;20115;-52
2022/02/22 00:46:15;;;;;;;5.57;3.83;;;;;;;;;;5055157;28;20396;-52
2022/02/22 00:48:42;;;;;;;5.78;3.15;;;;;;;;;;5055117;28;20033;-49
2022/02/22 00:51:08;;;;;;;5.13;3.35;;;;;;;;;;5020154;28;20055;-50
2022/02/22 00:53:34;;;;;;;7.55;3.97;;;;;;;;;;5013193;28;20042;-51
2022/02/22 00:56:00;;;;;;;5.38;3.50;;;;;;;;;;5013356;28;20038;-50
2022/02/22 00:58:26;;;;;;;3.95;3.25;;;;;;;;;;5013197;28;20046;-54
2022/02/22 01:00:52;;;;;;;5.20;3.38;;;;;;;;;;5013311;28;20037;-53
2022/02/22 01:03:18;;;;;;;4.97;3.58;;;;;;;;;;5012925;28;20078;-54
2022/02/22 01:05:44;;;;;;;5.15;3.35;;;;;;;;;;5013122;28;20050;-52
2022/02/22 01:08:10;;;;;;;5.35;3.08;;;;;;;;;;5013028;28;20096;-52
2022/02/22 01:10:36;;;;;;;4.20;3.30;;;7.30;99.90;;;;;;5012786;28;20068;-53
2022/02/22 01:13:02;;;;;;;5.70;3.38;;;7.30;99.90;;;;;;5013149;28;20061;-50
2022/02/22 01:15:28;;;;;;;6.88;3.47;;;7.20;99.90;;;;;;5012650;28;20064;-52
2022/02/22 01:17:54;;;;;;;4.38;3.03;;;7.30;99.90;;;;;;4980633;28;20033;-51
2022/02/22 01:20:20;;;;;;;4.15;2.90;;;7.20;99.90;;;;;;5012822;28;20044;-52
2022/02/22 01:22:46;;;;;;;6.65;3.28;;;7.30;99.90;;;;;;4996396;28;20129;-53
2022/02/22 01:25:12;;;;;;;5.43;3.95;;;7.10;99.90;;;;;;5045177;28;20044;-54
2022/02/22 01:27:39;;;;;;;5.68;3.63;;;7.10;99.90;;;;;;5054180;28;20087;-55
2022/02/22 01:30:07;;;;;;;3.85;3.30;;;7.20;99.90;;;;;;5054278;28;20033;-51
2022/02/22 01:32:33;;;;;;;5.45;3.10;;;7.10;99.90;;;;;;5019872;28;20089;-50
2022/02/22 01:35:04;;;;;;;5.45;3.30;;;6.90;99.90;;;;;;5054015;28;20064;-51
2022/02/22 01:37:30;;;;;;;5.15;3.25;;;6.90;99.90;;;;;;5054289;28;20032;-55
2022/02/22 01:39:55;;;;;;;5.32;3.78;;;6.90;99.90;;;;;;5036660;28;20033;-57
2022/02/22 01:42:21;;;;;;;5.15;3.53;;;6.90;99.90;;;;;;5053963;28;20025;-54
2022/02/22 01:44:48;;;;;;;4.15;3.10;;;6.90;99.90;;;;;;5054234;28;20126;-52
2022/02/22 01:47:16;;;;;;;4.53;3.00;;;6.90;99.90;;;;;;5054178;28;20024;-54
2022/02/22 01:49:46;;;;;;;5.20;3.28;;;6.90;99.90;;;;;;5054110;28;20037;-50
2022/02/22 01:52:11;;;;;;;5.55;3.80;;;6.80;99.90;;;;;;5053791;28;20494;-54
2022/02/22 01:54:38;;;;;;;5.95;5.22;;;6.90;99.90;;;;;;5053551;28;20025;-51
2022/02/22 01:57:04;;;;;;;13.77;7.00;;;6.70;99.90;;;;;;5054172;28;20377;-50
2022/02/22 01:59:33;;;;;;;17.75;11.20;;;6.90;99.90;;;;;;5002761;28;20069;-53
2022/02/22 02:01:59;;;;;;;14.20;9.98;;;6.90;99.90;;;;;;5053896;28;20024;-51
2022/02/22 02:04:31;;;;;;;16.00;11.07;;;6.90;99.90;;;;;;5053745;28;20037;-51
2022/02/22 02:06:58;;;;;;;11.52;7.35;;;6.90;99.90;;;;;;5053493;28;20582;-52
2022/02/22 02:09:25;;;;;;;4.25;2.92;;;6.90;99.90;;;;;;5053902;28;20025;-53
2022/02/22 02:11:58;;;;;;;4.00;2.80;;;6.90;99.90;;;;;;5053805;28;20473;-53
2022/02/22 02:14:25;;;;;;;4.63;2.72;;;6.90;99.90;;;;;;5053602;28;20055;-53
2022/02/22 02:16:52;;;;;;;3.78;2.40;;;7.10;99.90;;;;;;5018856;28;20032;-52
2022/02/22 02:19:18;;;;;;;2.83;1.88;;;7.10;99.90;;;;;;5018912;28;20032;-53
2022/02/22 02:21:46;;;;;;;4.72;1.90;;;7.20;99.90;;;;;;5053542;28;20025;-51
2022/02/22 02:24:20;;;;;;;3.72;2.15;;;7.10;99.90;;;;;;5053570;28;20446;-50
2022/02/22 02:26:47;;;;;;;3.22;2.38;;;7.10;99.90;;;;;;5053462;28;20032;-53
2022/02/22 02:29:15;;;;;;;2.92;2.00;;;7.20;99.90;;;;;;5053634;28;20032;-54
2022/02/22 02:31:44;;;;;;;2.75;1.70;;;7.30;99.90;;;;;;5018656;28;20089;-51
2022/02/22 02:34:13;;;;;;;4.07;1.80;;;7.30;99.90;;;;;;5053304;28;20056;-51
2022/02/22 02:36:40;;;;;;;2.92;1.63;;;7.30;99.90;;;;;;5053363;28;20021;-52
2022/02/22 02:39:07;;;;;;;2.70;2.20;;;7.30;99.90;;;;;;5053622;28;20358;-50
2022/02/22 02:41:34;;;;;;;2.30;1.60;;;7.40;99.90;;;;;;5035072;28;20041;-52
2022/02/22 02:44:02;;;;;;;3.28;1.65;;;7.40;99.90;;;;;;5053569;28;20033;-53
2022/02/22 02:46:28;;;;;;;2.28;1.30;;;7.50;99.90;;;;;;5053543;28;20035;-51
2022/02/22 02:48:55;;;;;;;2.30;1.50;;;7.50;99.90;;;;;;5053421;28;20026;-71
2022/02/22 02:51:22;;;;;;;4.30;1.65;;;7.60;99.90;;;;;;5053584;28;20476;-51
2022/02/22 02:53:48;;;;;;;2.72;1.63;;;7.70;99.90;;;;;;5053690;28;20025;-52
2022/02/22 02:56:14;;;;;;;2.15;1.42;;;7.70;99.90;;;;;;5035097;28;20358;-51
2022/02/22 02:58:41;;;;;;;3.00;1.45;;;;;;;;;;5052987;28;20037;-55
2022/02/22 03:01:06;;;;;;;2.13;1.35;;;8.00;99.90;;;;;;5053726;28;20104;-53
2022/02/22 03:03:32;;;;;;;2.97;1.30;;;8.00;99.90;;;;;;5054341;28;20488;-51
2022/02/22 03:05:58;;;;;;;5.13;1.60;;;8.10;99.90;;;;;;5034416;28;20401;-52
2022/02/22 03:08:24;;;;;;;2.45;1.30;;;8.20;99.90;;;;;;5056624;28;20032;-54
2022/02/22 03:10:50;;;;;;;2.80;1.50;;;8.20;99.90;;;;;;5057079;28;20028;-55
2022/02/22 03:13:16;;;;;;;2.03;1.15;;;8.40;99.90;;;;;;5005621;28;20032;-54
2022/02/22 03:15:41;;;;;;;2.67;1.33;;;8.30;99.90;;;;;;5056841;28;20476;-53
2022/02/22 03:18:08;;;;;;;5.22;1.50;;;8.30;99.90;;;;;;5056919;28;20029;-50
2022/02/22 03:20:35;;;;;;;4.78;1.30;;;8.30;99.90;;;;;;5056741;28;20202;-53
2022/02/22 03:23:01;;;;;;;3.05;1.40;;;8.40;99.90;;;;;;5005804;28;20048;-53
2022/02/22 03:25:28;;;;;;;1.90;1.30;;;8.40;99.90;;;;;;5056619;28;20029;-54
2022/02/22 03:27:54;;;;;;;4.75;1.58;;;8.50;99.90;;;;;;5056574;28;20039;-53
2022/02/22 03:30:20;;;;;;;3.03;1.63;;;8.50;99.90;;;;;;5021675;28;20037;-52
2022/02/22 03:32:46;;;;;;;2.50;1.42;;;8.50;99.90;;;;;;5056487;28;20112;-53
2022/02/22 03:35:13;;;;;;;3.33;1.50;;;8.50;99.90;;;;;;5018332;28;20134;-54
2022/02/22 03:37:38;;;;;;;3.17;1.42;;;8.40;99.90;;;;;;5036551;28;20022;-52
2022/02/22 03:40:05;;;;;;;4.65;1.65;;;8.50;99.90;;;;;;5036936;28;20032;-52
2022/02/22 03:42:31;;;;;;;2.63;1.92;;;8.50;99.90;;;;;;5036535;28;20049;-53
2022/02/22 03:44:56;;;;;;;4.38;1.60;;;8.40;99.90;;;;;;5036618;28;20429;-53
2022/02/22 03:47:22;;;;;;;4.30;2.53;;;8.40;99.90;;;;;;5036353;28;20030;-52
2022/02/22 03:49:48;;;;;;;4.18;1.67;;;8.40;99.90;;;;;;5017948;28;20057;-52
2022/02/22 03:52:14;;;;;;;3.03;1.90;;;8.30;99.90;;;;;;5036501;28;20053;-51
2022/02/22 03:54:39;;;;;;;4.72;2.47;;;8.40;99.90;;;;;;5036179;28;20108;-54
2022/02/22 03:57:05;;;;;;;4.00;2.17;;;;;;;;;;4985608;28;20037;-53
2022/02/22 03:59:31;;;;;;;2.35;1.80;;;7.90;99.90;;;;;;5036095;28;20026;-50
2022/02/22 04:01:57;;;;;;;3.22;2.05;;;7.90;99.90;;;;;;5035845;28;20075;-53
2022/02/22 04:04:23;;;;;;;2.50;1.73;;;7.60;99.90;;;;;;5036015;28;20034;-52
2022/02/22 04:06:49;;;;;;;3.65;2.00;;;7.70;99.90;;;;;;5018191;28;20038;-50
2022/02/22 04:09:15;;;;;;;5.07;2.40;;;;;;;;;;5036161;28;20048;-50
2022/02/22 04:11:41;;;;;;;3.08;2.45;;;;;;;;;;5017954;28;20112;-50
2022/02/22 04:14:07;;;;;;;2.58;1.95;;;;;;;;;;5017613;28;20033;-52
2022/02/22 04:16:33;;;;;;;414.08;328.75;;;;;;;;;;5035989;28;20021;-52
2022/02/22 04:18:59;;;;;;;132.52;118.55;;;;;;;;;;5035486;28;20036;-55
2022/02/22 04:21:25;;;;;;;646.57;586.67;;;;;;;;;;5035739;28;20029;-53
2022/02/22 04:23:52;;;;;;;446.88;404.42;;;;;;;;;;5035552;28;20026;-51
2022/02/22 04:26:18;;;;;;;4.50;2.22;;;;;;;;;;5035663;28;20032;-53
2022/02/22 04:28:44;;;;;;;2.90;2.05;;;;;;;;;;5035702;28;20030;-51
2022/02/22 04:31:10;;;;;;;2.65;1.95;;;;;;;;;;5017369;28;20477;-53
2022/02/22 04:33:36;;;;;;;3.88;2.30;;;;;;;;;;5035485;28;20026;-50
2022/02/22 04:36:02;;;;;;;3.03;2.03;;;;;;;;;;5053009;28;20056;-51
2022/02/22 04:38:28;;;;;;;5.93;4.43;;;;;;;;;;5055320;28;20082;-53
2022/02/22 04:40:54;;;;;;;54.65;40.00;;;;;;;;;;5055284;28;20029;-53
2022/02/22 04:43:21;;;;;;;5.20;2.40;;;;;;;;;;5055432;28;20098;-50
2022/02/22 04:45:47;;;;;;;3.00;2.20;;;;;;;;;;5054948;28;20036;-52
2022/02/22 04:48:13;;;;;;;788.42;721.15;;;;;;;;;;5055024;28;20078;-52
2022/02/22 04:50:40;;;;;;;573.35;520.75;;;;;;;;;;5054937;28;20029;-53
2022/02/22 04:53:08;;;;;;;5.75;2.53;;;;;;;;;;5055044;28;20032;-50
2022/02/22 04:55:34;;;;;;;4.50;3.40;;;;;;;;;;5044758;28;20033;-52
2022/02/22 04:58:00;;;;;;;3.20;2.60;;;;;;;;;;5034924;28;20029;-53
2022/02/22 05:00:26;;;;;;;8.02;3.97;;;7.40;99.90;;;;;;5034817;28;20032;-54
2022/02/22 05:02:52;;;;;;;71.20;54.28;;;7.40;99.90;;;;;;5034928;28;20026;-56
2022/02/22 05:05:18;;;;;;;3.08;2.50;;;7.40;99.90;;;;;;5034702;28;20116;-53
2022/02/22 05:07:44;;;;;;;23.15;13.15;;;7.30;99.90;;;;;;5000494;28;20436;-52
2022/02/22 05:10:09;;;;;;;5.25;2.58;;;7.30;99.90;;;;;;5000110;28;20048;-52
2022/02/22 05:12:35;;;;;;;9.95;4.35;;;7.20;99.90;;;;;;5034761;28;20033;-50
2022/02/22 05:15:01;;;;;;;3.15;1.50;;;7.20;99.90;;;;;;5016491;28;20037;-51
2022/02/22 05:17:27;;;;;;;6.18;2.75;;;7.00;99.90;;;;;;5034532;28;20117;-52
2022/02/22 05:19:53;;;;;;;21.83;13.18;;;6.90;99.90;;;;;;5000073;28;20094;-54
2022/02/22 05:22:19;;;;;;;3.47;2.33;;;7.00;99.90;;;;;;5034619;28;20032;-53
2022/02/22 05:24:44;;;;;;;3.72;2.65;;;6.90;99.90;;;;;;4983880;28;20037;-53
2022/02/22 05:27:10;;;;;;;4.65;2.28;;;7.00;99.90;;;;;;5034296;28;20388;-51
2022/02/22 05:29:36;;;;;;;4.72;2.42;;;6.90;99.90;;;;;;5015400;28;20040;-56
2022/02/22 05:32:03;;;;;;;5.50;3.88;;;6.90;99.90;;;;;;5010111;28;20094;-54
2022/02/22 05:34:29;;;;;;;551.70;494.40;;;6.90;99.90;;;;;;5053865;28;20081;-57
2022/02/22 05:36:57;;;;;;;6.00;2.92;;;7.00;99.90;;;;;;4997689;28;20080;-51
2022/02/22 05:39:23;;;;;;;4.47;2.22;;;7.00;99.90;;;;;;5034156;28;20136;-54
2022/02/22 05:41:49;;;;;;;5.22;3.35;;;6.90;99.90;;;;;;5045693;28;20472;-54
2022/02/22 05:44:15;;;;;;;6.97;3.70;;;7.00;99.90;;;;;;5049552;28;20118;-54
2022/02/22 05:46:40;;;;;;;8.43;7.25;;;6.90;99.90;;;;;;5033958;28;20091;-55
2022/02/22 05:49:06;;;;;;;3.33;1.85;;;6.80;99.90;;;;;;5001804;28;20032;-51
2022/02/22 05:51:32;;;;;;;4.10;2.67;;;6.70;99.90;;;;;;5050413;28;20115;-52
2022/02/22 05:53:58;;;;;;;3.47;2.35;;;6.80;99.90;;;;;;5002672;28;20036;-51
2022/02/22 05:56:24;;;;;;;3.33;2.45;;;6.80;99.90;;;;;;5053881;28;20049;-52
2022/02/22 05:58:49;;;;;;;5.75;2.97;;;6.60;99.90;;;;;;4986322;28;20041;-49
2022/02/22 06:01:15;;;;;;;5.60;2.80;;;6.60;99.90;;;;;;5052428;28;20028;-53
2022/02/22 06:03:41;;;;;;;4.75;2.70;;;6.60;99.90;;;;;;5053809;28;20104;-52
2022/02/22 06:06:07;;;;;;;4.40;2.67;;;6.70;99.90;;;;;;5002583;28;20045;-56
2022/02/22 06:08:32;;;;;;;4.70;2.45;;;6.70;99.90;;;;;;5035060;28;20044;-53
2022/02/22 06:10:58;;;;;;;5.63;2.75;;;6.60;99.90;;;;;;5053627;28;20021;-52
2022/02/22 06:26:31;;;;;;;818.47;756.78;;;6.40;99.90;;;;;;5100016;27;20376;-55
2022/02/22 06:28:57;;;;;;;494.08;453.35;;;7.00;99.90;;;;;;5081435;28;20059;-47
2022/02/22 06:31:22;;;;;;;16.25;13.00;;;7.10;99.90;;;;;;5083331;28;20029;-48
2022/02/22 06:33:48;;;;;;;843.03;779.25;;;7.10;99.90;;;;;;5081610;28;20475;-48
2022/02/22 06:36:14;;;;;;;3.83;2.63;;;7.10;99.90;;;;;;5079661;28;20032;-47
2022/02/22 06:38:39;;;;;;;2.35;1.70;;;6.90;99.90;;;;;;5029114;28;20036;-48
2022/02/22 06:41:05;;;;;;;2.47;1.10;;;6.50;99.90;;;;;;5025607;28;20102;-49
2022/02/22 06:43:31;;;;;;;679.80;615.42;;;6.30;99.90;;;;;;5032094;28;20766;-49
2022/02/22 06:45:57;;;;;;;5.63;2.75;;;6.20;99.90;;;;;;5081844;28;20141;-49
2022/02/22 06:48:22;;;;;;;3.53;2.10;;;6.40;99.90;;;;;;5084138;28;20491;-49
2022/02/22 06:50:48;;;;;;;5.45;2.00;;;6.20;99.90;;;;;;4997031;28;20032;-49
2022/02/22 06:53:14;;;;;;;3.50;2.42;;;6.40;99.90;;;;;;5077604;28;20039;-49
2022/02/22 06:55:40;;;;;;;3.20;1.90;;;6.40;99.90;;;;;;5046257;28;20040;-49
2022/02/22 06:58:08;;;;;;;1.88;1.30;;;6.40;99.90;;;;;;5030780;28;20036;-47
2022/02/22 07:00:36;;;;;;;11.02;5.18;;;6.30;99.90;;;;;;5082844;28;20027;-47
2022/02/22 07:03:03;;;;;;;7.63;3.67;;;6.50;99.90;;;;;;5050122;28;20033;-48
2022/02/22 07:05:33;;;;;;;4.20;2.65;;;6.50;99.90;;;;;;5083119;28;20037;-48
2022/02/22 07:07:59;;;;;;;3.55;2.10;;;6.60;99.90;;;;;;5087522;28;20029;-49
2022/02/22 07:10:27;;;;;;;4.38;2.10;;;6.50;99.90;;;;;;5084792;28;20410;-49
2022/02/22 07:12:53;;;;;;;7.50;2.63;;;6.60;99.90;;;;;;5085056;28;20021;-47
2022/02/22 07:15:20;;;;;;;2.63;1.85;;;6.60;99.90;;;;;;5088335;28;21574;-48
2022/02/22 07:17:50;;;;;;;2.90;2.17;;;6.60;99.90;;;;;;5082238;28;20025;-47
2022/02/22 07:20:17;;;;;;;2.97;2.08;;;6.70;99.90;;;;;;5077412;28;20452;-49
2022/02/22 07:22:44;;;;;;;277.85;255.13;;;6.70;99.90;;;;;;5076754;28;20153;-48
2022/02/22 07:25:11;;;;;;;638.37;575.93;;;6.70;99.90;;;;;;5073500;28;20099;-49
2022/02/22 07:27:38;;;;;;;5.15;3.20;;;6.60;99.90;;;;;;5059618;28;20033;-48
2022/02/22 07:30:06;;;;;;;5.28;2.75;;;6.70;99.90;;;;;;5011281;28;20037;-49
2022/02/22 07:32:32;;;;;;;4.32;2.60;;;6.60;99.90;;;;;;4995338;28;20036;-47
2022/02/22 07:34:58;;;;;;;4.63;2.88;;;6.80;99.90;;;;;;5059477;28;20041;-47
2022/02/22 07:37:24;;;;;;;4.40;2.03;;;6.80;99.90;;;;;;5025500;28;20398;-48
2022/02/22 07:39:49;;;;;;;29.83;26.77;;;6.80;99.90;;;;;;5063258;28;20021;-49
2022/02/22 07:42:15;;;;;;;468.20;431.90;;;7.00;99.90;;;;;;5059001;28;20028;-48
2022/02/22 07:44:41;;;;;;;305.70;278.63;;;7.00;99.90;;;;;;5018238;28;20033;-48
2022/02/22 07:47:07;;;;;;;700.13;634.40;;;7.00;99.90;;;;;;5014696;28;20091;-49
2022/02/22 07:49:33;;;;;;;4.35;2.90;;;7.00;99.90;;;;;;5000193;28;20429;-48
2022/02/22 07:51:58;;;;;;;4.07;2.10;;;7.10;99.90;;;;;;5017393;28;20489;-49
2022/02/22 07:54:24;;;;;;;4.75;2.10;;;7.10;99.90;;;;;;5023726;28;20045;-47
2022/02/22 07:56:50;;;;;;;9.57;2.90;;;7.20;99.90;;;;;;4973587;28;20037;-47
2022/02/22 07:59:16;;;;;;;4.20;2.28;;;7.10;99.90;;;;;;4952865;28;20057;-48
2022/02/22 08:01:42;;;;;;;4.22;3.20;;;6.90;99.90;;;;;;5024367;28;20075;-47
2022/02/22 08:04:07;;;;;;;12.82;9.50;;;7.20;99.90;;;;;;5023118;28;20045;-48
2022/02/22 08:06:34;;;;;;;55.95;29.17;;;7.20;99.90;;;;;;5020492;28;20087;-47
2022/02/22 08:08:59;;;;;;;7.10;5.47;;;6.80;99.90;;;;;;5013962;28;20030;-46
2022/02/22 08:11:31;;;;;;;55.20;38.08;;;6.90;99.90;;;;;;5022578;28;20496;-48
2022/02/22 08:14:00;;;;;;;13.73;8.75;;;7.10;99.90;;;;;;5003202;28;20057;-49
2022/02/22 08:16:27;;;;;;;8.50;3.75;;;7.20;99.90;;;;;;5024253;28;20072;-47
2022/02/22 08:18:54;;;;;;;12.23;7.07;;;7.20;99.90;;;;;;5061075;28;20069;-47
2022/02/22 08:21:21;;;;;;;12.00;8.18;;;7.30;99.90;;;;;;5047865;28;20028;-47
2022/02/22 08:23:47;;;;;;;7.00;4.25;;;7.30;99.90;;;;;;5067306;28;20356;-48
2022/02/22 08:26:12;;;;;;;8.27;5.72;;;7.30;99.90;;;;;;5061141;28;20049;-50
2022/02/22 08:28:38;;;;;;;7.93;5.18;;;7.40;99.90;;;;;;5060911;28;20044;-47
2022/02/22 08:31:04;;;;;;;9.02;6.15;;;7.80;99.90;;;;;;5072838;28;20033;-48
2022/02/22 08:33:29;;;;;;;7.30;5.43;;;8.30;99.90;;;;;;5018826;28;20103;-48
2022/02/22 08:35:56;;;;;;;8.80;5.72;;;;;;;;;;5063968;28;20127;-48
2022/02/22 08:38:22;;;;;;;7.40;5.85;;;10.80;99.90;;;;;;5063057;28;20028;-49
2022/02/22 08:40:49;;;;;;;7.43;5.07;;;;;;;;;;5065061;28;20083;-48
2022/02/22 08:43:16;;;;;;;9.55;6.60;;;11.80;99.90;;;;;;5015007;28;20032;-48
2022/02/22 08:45:43;;;;;;;8.30;4.60;;;11.50;99.90;;;;;;5061935;28;20025;-48
2022/02/22 08:48:13;;;;;;;7.50;4.68;;;11.00;99.90;;;;;;5063244;28;20470;-49
2022/02/22 08:50:39;;;;;;;8.80;4.05;;;11.70;99.90;;;;;;5060330;28;20107;-48
2022/02/22 08:53:05;;;;;;;8.32;5.03;;;11.10;99.90;;;;;;5059802;28;20452;-47
2022/02/22 08:55:31;;;;;;;13.88;7.28;;;11.20;99.90;;;;;;4977619;28;20132;-49
2022/02/22 08:57:58;;;;;;;7.20;3.85;;;10.70;99.90;;;;;;5013517;28;20036;-47
2022/02/22 09:00:25;;;;;;;6.10;4.07;;;10.80;99.90;;;;;;5011246;28;20044;-49
2022/02/22 09:02:57;;;;;;;5.22;3.40;;;10.80;99.90;;;;;;5064811;28;20101;-47
2022/02/22 09:05:24;;;;;;;7.17;4.17;;;10.90;99.90;;;;;;5062669;28;20412;-48
2022/02/22 09:07:51;;;;;;;6.30;4.38;;;10.60;99.90;;;;;;5021391;28;20044;-48
2022/02/22 09:10:17;;;;;;;6.20;3.90;;;10.20;99.90;;;;;;5005625;28;20033;-48
2022/02/22 09:12:46;;;;;;;7.25;3.35;;;10.30;99.90;;;;;;5003929;28;20045;-48
2022/02/22 09:15:14;;;;;;;3.35;2.47;;;10.60;99.90;;;;;;4950177;28;20050;-49
2022/02/22 09:17:42;;;;;;;5.63;4.15;;;10.60;99.90;;;;;;4985425;28;20037;-45
2022/02/22 09:20:11;;;;;;;4.60;4.00;;;11.30;99.90;;;;;;5013241;28;20073;-43
2022/02/22 09:22:37;;;;;;;5.53;3.50;;;11.60;99.90;;;;;;4964155;28;20041;-49
2022/02/22 09:25:06;;;;;;;8.30;5.90;;;12.10;99.90;;;;;;5004257;28;20632;-48
2022/02/22 09:27:32;;;;;;;5.43;3.38;;;;;;;;;;5015086;28;20104;-48
2022/02/22 09:29:58;;;;;;;7.78;4.72;;;12.10;99.90;;;;;;5012155;28;20049;-48
2022/02/22 09:32:25;;;;;;;7.28;4.85;;;12.10;99.90;;;;;;5011739;28;20022;-48
2022/02/22 09:34:51;;;;;;;25.73;11.98;;;12.20;99.90;;;;;;5003780;28;20529;-49
2022/02/22 09:37:17;;;;;;;8.40;4.85;;;12.20;99.90;;;;;;4997070;28;20161;-48
2022/02/22 09:39:43;;;;;;;5.38;3.50;;;12.50;99.90;;;;;;5012190;28;20037;-48
2022/02/22 09:42:09;;;;;;;4.88;3.15;;;12.70;99.90;;;;;;5047903;28;20057;-48
2022/02/22 09:44:37;;;;;;;6.57;4.22;;;12.70;99.90;;;;;;5060851;28;20118;-48
2022/02/22 09:47:04;;;;;;;6.60;3.47;;;12.90;99.90;;;;;;5072518;28;20033;-48
2022/02/22 09:49:29;;;;;;;5.40;4.00;;;12.60;99.90;;;;;;5017791;28;20186;-49
2022/02/22 09:51:55;;;;;;;6.50;3.25;;;12.30;99.90;;;;;;5070297;28;20515;-49
2022/02/22 09:54:22;;;;;;;5.07;3.20;;;11.60;99.90;;;;;;5057711;28;20033;-48
2022/02/22 09:56:49;;;;;;;8.55;3.42;;;11.40;99.90;;;;;;5053710;28;20021;-47
2022/02/22 09:59:16;;;;;;;5.95;3.28;;;11.20;99.90;;;;;;5018735;28;20048;-49
2022/02/22 10:01:46;;;;;;;8.88;6.90;;;11.30;99.90;;;;;;5065397;28;20036;-49
2022/02/22 10:04:12;;;;;;;22.75;8.60;;;11.30;99.90;;;;;;5071435;28;20028;-49
2022/02/22 10:06:38;;;;;;;8.30;3.70;;;11.60;99.90;;;;;;5053795;28;20098;-48
2022/02/22 10:09:06;;;;;;;86.60;33.35;;;11.30;99.90;;;;;;5053554;28;20025;-48
2022/02/22 10:11:52;;;;;;;8.10;4.72;;;10.90;99.90;;;;;;5053537;28;20397;-49
2022/02/22 10:14:23;;;;;;;55.97;21.40;;;10.80;99.90;;;;;;5066676;28;20085;-49
2022/02/22 10:16:50;;;;;;;3.95;3.08;;;10.80;99.90;;;;;;5078031;28;20406;-49
2022/02/22 10:19:17;;;;;;;7.03;2.95;;;10.60;99.90;;;;;;5082018;28;20032;-48
2022/02/22 10:21:47;;;;;;;8.45;3.97;;;10.50;99.90;;;;;;5083635;28;20348;-48
2022/02/22 10:24:15;;;;;;;5.10;2.97;;;10.40;99.90;;;;;;5073233;28;20041;-48
2022/02/22 10:26:41;;;;;;;8.95;4.13;;;10.30;99.90;;;;;;5069982;28;20094;-47
2022/02/22 10:29:18;;;;;;;8.35;3.78;;;10.70;99.90;;;;;;5071233;28;20491;-48
2022/02/22 10:31:45;;;;;;;17.05;5.85;;;11.40;99.90;;;;;;5067749;28;20024;-48
2022/02/22 10:34:11;;;;;;;20.02;5.45;;;11.60;99.90;;;;;;5044051;28;20074;-48
2022/02/22 10:36:47;;;;;;;43.20;12.70;;;11.70;99.90;;;;;;5073250;28;20511;-48
2022/02/22 10:39:17;;;;;;;26.25;12.15;;;12.10;99.90;;;;;;5065100;28;20452;-49
2022/02/22 10:41:45;;;;;;;18.92;7.50;;;12.10;99.90;;;;;;5053288;28;20029;-48
2022/02/22 10:44:22;;;;;;;6.78;4.05;;;12.00;99.90;;;;;;5053201;28;20447;-48
2022/02/22 10:46:49;;;;;;;10.57;4.60;;;11.20;99.90;;;;;;5053001;28;20476;-48
2022/02/22 10:49:18;;;;;;;10.18;6.28;;;11.00;99.90;;;;;;5053290;28;20033;-48
2022/02/22 10:51:49;;;;;;;2.95;2.30;;;10.70;99.90;;;;;;5056872;28;20028;-48
2022/02/22 10:54:16;;;;;;;6.00;4.32;;;10.60;99.90;;;;;;5073102;28;20037;-48
2022/02/22 10:56:43;;;;;;;14.05;7.63;;;10.70;99.90;;;;;;5037234;28;20037;-48
2022/02/22 10:59:09;;;;;;;8.48;4.40;;;11.70;99.90;;;;;;5072451;28;20487;-48
2022/02/22 11:01:34;;;;;;;24.90;3.40;;;11.70;99.90;;;;;;5077243;28;20023;-47
2022/02/22 11:04:00;;;;;;;11.68;2.55;;;11.00;99.90;;;;;;5084504;28;20028;-47
2022/02/22 11:06:26;;;;;;;3.03;1.90;;;10.70;99.90;;;;;;5076743;28;20035;-48
2022/02/22 11:08:55;;;;;;;2.92;1.42;;;10.40;99.90;;;;;;5076611;28;20090;-48
2022/02/22 11:11:37;;;;;;;5.10;2.03;;;10.00;99.90;;;;;;5041313;28;20438;-47
2022/02/22 11:14:10;;;;;;;3.35;1.80;;;10.20;99.90;;;;;;5041289;28;20036;-48
2022/02/22 11:16:47;;;;;;;4.07;2.75;;;10.10;99.90;;;;;;5076492;28;20078;-48
2022/02/22 11:19:22;;;;;;;4.00;2.63;;;10.20;99.90;;;;;;5075878;28;20051;-47
2022/02/22 11:21:50;;;;;;;2.70;1.73;;;10.50;99.90;;;;;;5075852;28;20046;-47
2022/02/22 11:24:18;;;;;;;3.92;2.28;;;10.40;99.90;;;;;;5076159;28;20035;-48
2022/02/22 11:27:00;;;;;;;2.60;1.95;;;10.50;99.90;;;;;;5074640;28;20043;-48
2022/02/22 11:29:28;;;;;;;5.75;2.92;;;10.80;99.90;;;;;;5072509;28;20056;-48
2022/02/22 11:32:07;;;;;;;1.95;1.40;;;10.70;99.90;;;;;;5076053;28;20056;-46
2022/02/22 11:34:37;;;;;;;5.28;2.95;;;10.50;99.90;;;;;;5074624;28;20040;-47
2022/02/22 11:37:08;;;;;;;4.07;2.03;;;10.90;99.90;;;;;;5038397;28;20045;-48
2022/02/22 11:39:45;;;;;;;3.88;1.83;;;10.80;99.90;;;;;;5071083;28;20029;-48
2022/02/22 11:42:21;;;;;;;2.30;1.50;;;10.50;99.90;;;;;;5069495;28;20492;-47
2022/02/22 11:44:57;;;;;;;6.07;2.45;;;10.30;99.90;;;;;;5055782;28;20476;-47
2022/02/22 11:47:23;;;;;;;4.75;2.25;;;10.10;99.90;;;;;;5055777;28;20029;-48
2022/02/22 11:49:50;;;;;;;4.63;2.75;;;10.20;99.90;;;;;;4972003;28;20106;-47
2022/02/22 11:52:16;;;;;;;4.88;2.20;;;10.30;99.90;;;;;;5055838;28;20498;-47
2022/02/22 11:54:49;;;;;;;4.40;2.00;;;10.30;99.90;;;;;;5055701;28;20037;-47
2022/02/22 11:57:17;;;;;;;8.90;4.80;;;10.30;99.90;;;;;;5055738;28;20063;-48
2022/02/22 11:59:59;;;;;;;19.90;15.07;;;10.60;99.90;;;;;;5055652;28;20075;-47
2022/02/22 12:02:31;;;;;;;33.75;21.77;;;11.40;99.90;;;;;;5055667;28;20033;-48
2022/02/22 12:04:58;;;;;;;9.35;4.45;;;11.50;99.90;;;;;;5055633;28;20051;-47
2022/02/22 12:07:34;;;;;;;3.17;2.33;;;11.20;99.90;;;;;;5036903;28;20388;-48
2022/02/22 12:10:07;;;;;;;8.57;4.47;;;11.30;99.90;;;;;;5055652;28;20067;-47
2022/02/22 12:12:33;;;;;;;4.28;2.33;;;11.50;99.90;;;;;;5055357;28;20033;-47
2022/02/22 12:15:00;;;;;;;4.63;2.08;;;11.20;99.90;;;;;;5055437;28;20434;-48
2022/02/22 12:17:26;;;;;;;3.70;2.10;;;10.90;99.90;;;;;;5055509;28;20033;-48
2022/02/22 12:19:56;;;;;;;4.13;2.83;;;10.70;99.90;;;;;;5003540;28;20029;-47
2022/02/22 12:22:24;;;;;;;3.75;1.83;;;10.60;99.90;;;;;;5055113;28;20094;-47
2022/02/22 12:25:05;;;;;;;4.43;3.20;;;10.50;99.90;;;;;;5055207;28;20056;-47
2022/02/22 12:27:33;;;;;;;104.95;97.40;;;10.50;99.90;;;;;;5019905;28;20040;-47
2022/02/22 12:30:00;;;;;;;4.40;4.20;;;10.50;99.90;;;;;;5055055;28;20061;-47
2022/02/22 12:32:32;;;;;;;3.72;2.65;;;10.50;99.90;;;;;;5019974;28;20033;-47
2022/02/22 12:35:06;;;;;;;6.88;3.70;;;10.50;99.90;;;;;;5054786;28;20075;-47
2022/02/22 12:37:43;;;;;;;4.10;2.55;;;10.40;99.90;;;;;;5055444;28;20037;-48
2022/02/22 12:40:11;;;;;;;2.40;1.80;;;10.30;99.90;;;;;;5055119;28;20120;-47
2022/02/22 12:42:37;;;;;;;3.95;3.00;;;10.30;99.90;;;;;;5022531;28;20047;-47
2022/02/22 12:45:22;;;;;;;4.30;2.03;;;10.80;99.90;;;;;;5074517;28;20371;-47
2022/02/22 12:47:47;;;;;;;5.25;3.00;;;11.50;99.90;;;;;;5075255;28;20039;-47
2022/02/22 12:50:14;;;;;;;4.97;3.65;;;11.80;99.90;;;;;;5074991;28;20100;-47
2022/02/22 12:52:40;;;;;;;3.15;1.75;;;11.70;99.90;;;;;;5074724;28;20028;-47
2022/02/22 12:55:08;;;;;;;2.05;1.40;;;11.40;99.90;;;;;;5074535;28;20040;-47
2022/02/22 12:57:34;;;;;;;1.73;1.02;;;11.70;99.90;;;;;;5074419;28;20025;-47
2022/02/22 13:00:03;;;;;;;3.97;2.50;;;11.70;99.90;;;;;;5073843;28;20028;-48
2022/02/22 13:02:29;;;;;;;6.93;2.65;;;11.90;99.90;;;;;;5022688;28;20044;-48
2022/02/22 13:04:55;;;;;;;1.88;1.10;;;12.20;99.90;;;;;;5072049;28;20032;-48
2022/02/22 13:07:22;;;;;;;1.60;1.20;;;11.80;99.90;;;;;;5068799;28;20021;-48
2022/02/22 13:09:48;;;;;;;1.05;0.80;;;11.40;99.90;;;;;;5035832;28;20041;-48
2022/02/22 13:12:20;;;;;;;6.38;2.28;;;11.00;99.90;;;;;;5074340;28;20032;-48
2022/02/22 13:14:51;;;;;;;2.78;2.03;;;11.10;99.90;;;;;;5073543;28;20039;-48
2022/02/22 13:17:17;;;;;;;2.33;0.98;;;11.40;99.90;;;;;;5070657;28;20036;-48
2022/02/22 13:19:45;;;;;;;3.25;1.20;;;11.60;99.90;;;;;;5035817;28;20040;-48